UTAK

Details ICAO UTAK (KRW)
Name TURKMENBASHI
Region Tajikistan, Turkmenistan and Uzbekistan
Timezone Asia/Ashgabat (UTC+5.0)
Plans Departing 45
Arriving 51
Stats Elevation 279 ft / 85 m (AMSL)
Location 40.063500° 53.007200°
Runways 1
Magnetic Variation 6.076° E
Sunrise 2019-02-23 03:12:33 UTC / 2019-02-23 08:12:33 Local
Sunset 2019-02-23 14:13:13 UTC / 2019-02-23 19:13:13 Local
Advertisement - Login to hide

Runways

ID Width Length Bearing (true/mag) Surface Threshold Overrun Markings Lighting
16 144 ft / 44 m 8,221 ft / 2,506 m 166.91° / 160.83° CONCRETE 0 ft / 0 m 0 ft / 0 m APP EDGE THRESHOLD SALS
34 144 ft / 44 m 8,221 ft / 2,506 m 346.91° / 340.84° CONCRETE 0 ft / 0 m 0 ft / 0 m APP EDGE THRESHOLD SALS

Map

Weather


0- 5 10 15 20 25 30 35+ Temperature / °C

Clouds and Precipitation
Forecast for 2019-02-23 18:00 UTC. Updated an hour ago

Ground ~20,000 ft ~40,000 ft Winds

METAR

UTAK 231600Z 28004KT 6000 SKC 06/02 Q1023 R16L/CLRD70 NOSIG

TAF

Not found

Frequencies

Ground 121.70 MHz
Approach 120.00 MHz
Tower 124.00 MHz
Warning: Do not use this data for real-world aviation or navigation. No guarantee of current accuracy is given.